Time;durP1;ratioP1;P1;durP2;ratioP2;P2;SDS_P1;SDS_P2;PMS_P1;PMS_P2;Temp;Humidity;BMP_temperature;BMP_pressure;BME280_temperature;BME280_humidity;BME280_pressure;Samples;Min_cycle;Max_cycle;Signal;HPM_P1;HPM_P2
2021/09/17 00:00:29;;;;;;;11.98;5.25;;;28.20;87.50;;;;;;5023367;28;20063;-55
2021/09/17 00:02:59;;;;;;;11.13;5.03;;;28.10;87.30;;;;;;5023017;28;20028;-47
2021/09/17 00:05:26;;;;;;;10.13;4.90;;;28.10;87.30;;;;;;5022857;28;20032;-47
2021/09/17 00:07:53;;;;;;;11.95;4.65;;;28.10;87.20;;;;;;5022893;28;20061;-50
2021/09/17 00:10:21;;;;;;;7.60;4.47;;;28.20;87.10;;;;;;5022719;28;20013;-51
2021/09/17 00:12:48;;;;;;;9.45;4.28;;;28.20;87.00;;;;;;5023416;28;20029;-47
2021/09/17 00:15:15;;;;;;;7.97;4.60;;;28.20;86.80;;;;;;5024105;28;20026;-46
2021/09/17 00:17:43;;;;;;;9.60;4.47;;;28.20;86.80;;;;;;5025831;28;20283;-47
2021/09/17 00:20:12;;;;;;;8.82;4.55;;;28.20;86.60;;;;;;5025078;28;20022;-52
2021/09/17 00:22:39;;;;;;;9.50;4.30;;;28.20;86.80;;;;;;5025169;28;20044;-48
2021/09/17 00:25:07;;;;;;;8.73;4.45;;;28.20;86.50;;;;;;5025283;28;20025;-47
2021/09/17 00:27:34;;;;;;;7.05;3.85;;;28.20;86.40;;;;;;5025323;28;20021;-46
2021/09/17 00:30:01;;;;;;;7.82;4.40;;;28.20;86.40;;;;;;5025267;28;20030;-48
2021/09/17 00:32:28;;;;;;;8.73;4.50;;;28.20;86.30;;;;;;5025222;28;20029;-48
2021/09/17 00:34:54;;;;;;;8.02;3.70;;;28.20;86.10;;;;;;5025087;28;20025;-51
2021/09/17 00:37:21;;;;;;;6.95;4.07;;;28.20;86.10;;;;;;5025254;28;20056;-48
2021/09/17 00:39:48;;;;;;;9.27;4.03;;;28.20;86.30;;;;;;5024694;28;20080;-49
2021/09/17 00:42:15;;;;;;;6.88;3.55;;;28.20;86.20;;;;;;5024921;28;20026;-51
2021/09/17 00:44:42;;;;;;;5.80;3.60;;;28.10;86.10;;;;;;5024556;28;20026;-49
2021/09/17 00:47:09;;;;;;;8.35;4.40;;;28.20;86.20;;;;;;5024435;28;20103;-51
2021/09/17 00:49:36;;;;;;;18.80;9.35;;;28.20;86.30;;;;;;5024412;28;20025;-46
2021/09/17 00:52:03;;;;;;;38.83;21.00;;;28.20;86.10;;;;;;5024516;28;20198;-47
2021/09/17 00:54:34;;;;;;;19.85;10.60;;;28.10;86.10;;;;;;5024456;28;20025;-47
2021/09/17 00:57:03;;;;;;;26.33;13.48;;;28.10;86.00;;;;;;5024735;28;20029;-48
2021/09/17 00:59:30;;;;;;;28.83;19.10;;;28.20;85.90;;;;;;5024106;28;20511;-49
2021/09/17 01:01:57;;;;;;;29.90;15.02;;;28.10;85.90;;;;;;5024703;28;20294;-46
2021/09/17 01:04:24;;;;;;;21.83;14.23;;;28.20;85.90;;;;;;5024505;28;20020;-52
2021/09/17 01:06:55;;;;;;;32.13;20.92;;;28.10;86.00;;;;;;5023981;28;20034;-48
2021/09/17 01:09:22;;;;;;;33.80;24.40;;;28.10;85.90;;;;;;5023949;28;20045;-48
2021/09/17 01:11:49;;;;;;;32.28;23.52;;;28.10;86.00;;;;;;5024726;28;20033;-46
2021/09/17 01:14:17;;;;;;;27.48;20.13;;;28.10;85.90;;;;;;5024350;28;20044;-47
2021/09/17 01:16:44;;;;;;;29.35;18.27;;;28.10;86.00;;;;;;5024454;28;20076;-48
2021/09/17 01:19:11;;;;;;;19.30;14.70;;;28.00;86.00;;;;;;5024400;28;20053;-49
2021/09/17 01:21:39;;;;;;;20.02;12.90;;;28.00;86.20;;;;;;5024772;28;20041;-47
2021/09/17 01:24:06;;;;;;;17.10;11.85;;;28.00;86.00;;;;;;5024425;28;20026;-47
2021/09/17 01:26:32;;;;;;;20.75;10.52;;;28.00;86.10;;;;;;5024348;28;20049;-53
2021/09/17 01:28:59;;;;;;;13.00;9.13;;;28.00;86.00;;;;;;5024552;28;20057;-45
2021/09/17 01:31:26;;;;;;;13.25;6.45;;;28.00;86.00;;;;;;5024182;28;20298;-46
2021/09/17 01:33:53;;;;;;;9.75;5.60;;;28.00;85.90;;;;;;5023869;28;20052;-53
2021/09/17 01:36:22;;;;;;;25.55;6.25;;;28.00;86.80;;;;;;5023910;28;20033;-47
2021/09/17 01:38:53;;;;;;;10.70;5.07;;;27.90;87.00;;;;;;5023489;28;20050;-52
2021/09/17 01:41:21;;;;;;;14.32;4.78;;;27.80;87.10;;;;;;5023828;28;20033;-50
2021/09/17 01:43:48;;;;;;;9.82;5.93;;;27.70;87.50;;;;;;5023540;28;20030;-49
2021/09/17 01:46:15;;;;;;;15.43;9.43;;;27.70;87.50;;;;;;5023669;28;20022;-51
2021/09/17 01:48:42;;;;;;;23.08;10.10;;;27.70;87.80;;;;;;5023306;28;20032;-48
2021/09/17 01:51:09;;;;;;;11.90;6.53;;;27.70;87.70;;;;;;5023106;28;20323;-51
2021/09/17 01:53:36;;;;;;;11.43;6.22;;;27.60;88.00;;;;;;5023652;28;20033;-50
2021/09/17 01:56:03;;;;;;;23.85;6.45;;;27.60;88.20;;;;;;5023383;28;20075;-48
2021/09/17 01:58:30;;;;;;;23.92;10.48;;;27.50;88.10;;;;;;5023632;28;20028;-51
2021/09/17 02:00:57;;;;;;;22.95;10.65;;;27.50;88.40;;;;;;5023609;28;20361;-48
2021/09/17 02:03:24;;;;;;;19.17;10.60;;;27.50;88.30;;;;;;5024675;28;20030;-48
2021/09/17 02:05:51;;;;;;;15.57;10.07;;;27.40;88.40;;;;;;5026576;28;20087;-47
2021/09/17 02:08:18;;;;;;;22.63;10.35;;;27.40;88.80;;;;;;5026553;28;20263;-52
2021/09/17 02:10:46;;;;;;;14.77;8.18;;;27.40;88.80;;;;;;5026638;28;20310;-53
2021/09/17 02:13:13;;;;;;;12.68;7.65;;;27.40;89.00;;;;;;5027155;28;20025;-49
2021/09/17 02:15:40;;;;;;;14.70;9.50;;;27.30;88.90;;;;;;5026539;28;20213;-53
2021/09/17 02:18:08;;;;;;;22.05;11.73;;;27.30;88.80;;;;;;5026473;28;20018;-48
2021/09/17 02:20:35;;;;;;;20.35;10.25;;;27.30;88.90;;;;;;5026962;28;20158;-49
2021/09/17 02:23:01;;;;;;;13.60;6.82;;;27.30;89.30;;;;;;5026562;28;20025;-54
2021/09/17 02:25:28;;;;;;;11.50;5.40;;;27.30;89.20;;;;;;5026132;28;20022;-52
2021/09/17 02:27:55;;;;;;;9.10;6.03;;;27.30;89.30;;;;;;5026470;28;20029;-52
2021/09/17 02:30:22;;;;;;;14.82;8.18;;;27.20;89.00;;;;;;5026995;28;20093;-51
2021/09/17 02:32:49;;;;;;;19.73;9.20;;;27.20;89.10;;;;;;5026524;28;20057;-48
2021/09/17 02:35:16;;;;;;;190.32;24.13;;;27.20;89.10;;;;;;5026558;28;20026;-55
2021/09/17 02:37:43;;;;;;;77.97;14.45;;;27.20;89.80;;;;;;5026129;28;20085;-48
2021/09/17 02:40:12;;;;;;;36.08;9.98;;;27.20;90.00;;;;;;5026074;28;20018;-48
2021/09/17 02:42:40;;;;;;;34.83;9.13;;;27.20;90.10;;;;;;5026557;28;20033;-53
2021/09/17 02:45:09;;;;;;;21.75;9.00;;;27.20;90.00;;;;;;5026464;28;20214;-54
2021/09/17 02:47:37;;;;;;;19.83;6.68;;;27.20;89.80;;;;;;5025405;28;20030;-50
2021/09/17 02:50:05;;;;;;;15.45;6.00;;;27.20;90.00;;;;;;5026251;28;20021;-49
2021/09/17 02:52:32;;;;;;;15.50;5.80;;;27.10;90.10;;;;;;5026052;28;20213;-49
2021/09/17 02:54:59;;;;;;;13.20;6.07;;;27.10;90.20;;;;;;5026077;28;20022;-49
2021/09/17 02:57:26;;;;;;;23.42;14.98;;;27.10;90.20;;;;;;5025006;28;20030;-51
2021/09/17 02:59:52;;;;;;;98.72;57.20;;;27.00;90.20;;;;;;5025971;28;20071;-49
2021/09/17 03:02:19;;;;;;;108.25;63.47;;;27.00;90.30;;;;;;5026079;28;20052;-46
2021/09/17 03:04:46;;;;;;;70.22;41.72;;;26.90;90.30;;;;;;5025744;28;20081;-53
2021/09/17 03:07:13;;;;;;;46.40;28.38;;;26.90;90.40;;;;;;5026118;28;20030;-47
2021/09/17 03:09:39;;;;;;;30.10;19.73;;;26.90;90.50;;;;;;5025838;28;20069;-49
2021/09/17 03:12:06;;;;;;;17.85;11.95;;;26.90;90.50;;;;;;5026330;28;20105;-47
2021/09/17 03:14:33;;;;;;;19.02;10.98;;;26.80;90.50;;;;;;5025371;28;20093;-52
2021/09/17 03:17:00;;;;;;;20.30;10.48;;;26.90;90.60;;;;;;5026096;28;20034;-52
2021/09/17 03:19:26;;;;;;;13.27;8.27;;;26.80;90.70;;;;;;5026189;28;20021;-51
2021/09/17 03:21:53;;;;;;;12.25;6.68;;;26.80;90.50;;;;;;5025691;28;20026;-50
2021/09/17 03:24:20;;;;;;;13.02;6.40;;;26.80;90.60;;;;;;5025861;28;20039;-47
2021/09/17 03:26:46;;;;;;;13.60;6.15;;;26.80;90.70;;;;;;5025546;28;20030;-51
2021/09/17 03:29:13;;;;;;;10.30;5.60;;;26.80;90.80;;;;;;5025535;28;20025;-51
2021/09/17 03:31:39;;;;;;;8.32;4.95;;;26.80;90.90;;;;;;5025526;28;20315;-51
2021/09/17 03:34:06;;;;;;;8.55;4.65;;;26.80;91.00;;;;;;5026894;28;20029;-50
2021/09/17 03:36:37;;;;;;;11.45;5.13;;;26.70;91.10;;;;;;5033702;28;20021;-52
2021/09/17 03:39:04;;;;;;;7.85;4.55;;;26.70;91.00;;;;;;5028155;28;20060;-53
2021/09/17 03:41:30;;;;;;;8.93;4.35;;;26.70;90.80;;;;;;5025017;28;20093;-49
2021/09/17 03:43:57;;;;;;;8.95;4.30;;;26.80;90.80;;;;;;5024938;28;20022;-51
2021/09/17 03:46:23;;;;;;;9.55;4.80;;;26.70;90.80;;;;;;5025211;28;20037;-55
2021/09/17 03:48:50;;;;;;;11.13;5.80;;;26.70;90.80;;;;;;5023541;28;20093;-48
2021/09/17 03:51:17;;;;;;;11.20;6.88;;;26.80;90.80;;;;;;5024932;28;20036;-47
2021/09/17 03:53:44;;;;;;;11.30;7.85;;;26.70;90.80;;;;;;5025223;28;20021;-51
2021/09/17 03:56:12;;;;;;;15.27;6.70;;;26.70;90.80;;;;;;5035022;28;20075;-52
2021/09/17 03:58:40;;;;;;;12.38;6.18;;;26.80;90.90;;;;;;5032756;28;20021;-54
2021/09/17 04:01:08;;;;;;;11.40;5.20;;;26.80;90.80;;;;;;5029892;28;20088;-56
2021/09/17 04:03:34;;;;;;;7.57;4.10;;;26.70;90.90;;;;;;5034569;28;20017;-54
2021/09/17 04:06:01;;;;;;;16.67;5.75;;;26.70;91.00;;;;;;5035083;28;20217;-48
2021/09/17 04:08:28;;;;;;;10.88;4.60;;;26.60;91.10;;;;;;5030343;28;20038;-48
2021/09/17 04:10:56;;;;;;;10.93;4.80;;;26.60;91.10;;;;;;5034212;28;20029;-53
2021/09/17 04:13:22;;;;;;;7.20;4.25;;;26.70;91.10;;;;;;5035169;28;20438;-47
2021/09/17 04:15:49;;;;;;;7.28;3.83;;;26.80;90.80;;;;;;5024476;28;20042;-48
2021/09/17 04:18:17;;;;;;;5.55;3.70;;;26.80;90.70;;;;;;5024289;28;20345;-47
2021/09/17 04:20:44;;;;;;;7.10;3.67;;;26.80;90.70;;;;;;5024269;28;20034;-46
2021/09/17 04:23:10;;;;;;;7.03;3.53;;;26.80;90.80;;;;;;5024458;28;20061;-46
2021/09/17 04:25:37;;;;;;;8.30;3.38;;;26.80;90.60;;;;;;5024334;28;20032;-48
2021/09/17 04:28:04;;;;;;;7.05;3.45;;;26.80;90.50;;;;;;5024498;28;20072;-47
2021/09/17 04:30:30;;;;;;;6.28;2.80;;;26.90;90.50;;;;;;5024745;28;20018;-46
2021/09/17 04:32:57;;;;;;;6.60;3.53;;;26.90;90.40;;;;;;5024831;28;20049;-52
2021/09/17 04:35:25;;;;;;;7.20;3.40;;;26.80;90.50;;;;;;5024768;28;20254;-48
2021/09/17 04:38:01;;;;;;;7.05;4.07;;;26.90;90.50;;;;;;5022914;28;20045;-47
2021/09/17 04:40:28;;;;;;;7.22;4.50;;;26.90;90.50;;;;;;5035737;28;20093;-50
2021/09/17 04:42:54;;;;;;;9.38;5.93;;;26.90;90.40;;;;;;5024474;28;20098;-46
2021/09/17 04:45:21;;;;;;;10.88;6.53;;;26.80;90.20;;;;;;5024565;28;20022;-45
2021/09/17 04:47:47;;;;;;;9.82;6.78;;;26.80;90.20;;;;;;5024941;28;20214;-45
2021/09/17 04:50:14;;;;;;;10.77;6.97;;;26.80;90.30;;;;;;5024443;28;20068;-45
2021/09/17 04:52:42;;;;;;;9.60;6.80;;;26.80;90.40;;;;;;5024701;28;20030;-53
2021/09/17 04:55:09;;;;;;;12.70;6.40;;;26.80;90.30;;;;;;5033946;28;20090;-46
2021/09/17 04:57:36;;;;;;;9.13;7.10;;;26.80;90.30;;;;;;5044468;28;20026;-48
2021/09/17 05:00:05;;;;;;;12.73;7.32;;;26.80;90.30;;;;;;5044018;28;20025;-45
2021/09/17 05:02:33;;;;;;;10.52;6.22;;;26.80;90.20;;;;;;5044288;28;20089;-45
2021/09/17 05:05:00;;;;;;;13.25;6.93;;;26.80;90.30;;;;;;5044115;28;20025;-46
2021/09/17 05:07:26;;;;;;;8.63;5.95;;;26.80;90.30;;;;;;5043761;28;20022;-45
2021/09/17 05:09:53;;;;;;;12.18;5.72;;;26.80;90.20;;;;;;5043845;28;20322;-45
2021/09/17 05:12:19;;;;;;;15.88;5.47;;;26.80;90.20;;;;;;5044226;28;20044;-47
2021/09/17 05:14:46;;;;;;;19.10;5.40;;;26.80;90.20;;;;;;5043994;28;20087;-45
2021/09/17 05:17:13;;;;;;;15.57;5.40;;;26.80;90.20;;;;;;5044098;28;20034;-46
2021/09/17 05:19:39;;;;;;;28.10;7.00;;;26.80;90.20;;;;;;5043862;28;20021;-49
2021/09/17 05:22:06;;;;;;;29.42;6.55;;;26.80;90.20;;;;;;5044172;28;20245;-46
2021/09/17 05:24:32;;;;;;;88.53;13.68;;;26.80;90.20;;;;;;5043777;28;20044;-50
2021/09/17 05:26:59;;;;;;;125.57;17.27;;;26.80;90.40;;;;;;5044262;28;20365;-47
2021/09/17 05:29:26;;;;;;;93.18;13.30;;;26.80;90.40;;;;;;5043885;28;20307;-51
2021/09/17 05:31:52;;;;;;;102.25;13.40;;;26.80;90.40;;;;;;5043861;28;20032;-45
2021/09/17 05:34:19;;;;;;;127.60;16.98;;;26.70;90.40;;;;;;5043771;28;20028;-46
2021/09/17 05:36:45;;;;;;;116.35;17.52;;;26.70;90.40;;;;;;5044483;28;20025;-47
2021/09/17 05:39:12;;;;;;;148.50;18.58;;;26.70;90.50;;;;;;5047386;28;20068;-45
2021/09/17 05:41:39;;;;;;;152.35;18.90;;;26.70;90.60;;;;;;5047839;28;20022;-45
2021/09/17 05:44:05;;;;;;;136.25;16.13;;;26.70;90.60;;;;;;5047411;28;20017;-44
2021/09/17 05:46:32;;;;;;;96.95;14.43;;;26.80;90.60;;;;;;5047470;28;20052;-44
2021/09/17 05:48:58;;;;;;;84.18;11.35;;;26.70;90.50;;;;;;5047250;28;20033;-45
2021/09/17 05:51:25;;;;;;;113.70;14.32;;;26.70;90.60;;;;;;5047192;28;20025;-48
2021/09/17 05:53:52;;;;;;;82.00;11.70;;;26.70;90.60;;;;;;5047230;28;20281;-46
2021/09/17 05:56:19;;;;;;;46.15;8.85;;;26.70;90.60;;;;;;5047262;28;20309;-47
2021/09/17 05:58:45;;;;;;;27.25;7.45;;;26.70;90.60;;;;;;5047203;28;20028;-46
2021/09/17 06:01:12;;;;;;;24.60;6.80;;;26.70;90.70;;;;;;5047216;28;20225;-47
2021/09/17 06:03:41;;;;;;;43.13;8.50;;;26.60;90.50;;;;;;5047036;28;20056;-46
2021/09/17 06:06:09;;;;;;;24.77;7.70;;;26.60;90.50;;;;;;5046716;28;20075;-47
2021/09/17 06:08:35;;;;;;;25.33;7.20;;;26.60;90.50;;;;;;5046936;28;20052;-46
2021/09/17 06:11:02;;;;;;;21.27;6.38;;;26.60;90.50;;;;;;5047045;28;20036;-46
2021/09/17 06:13:29;;;;;;;15.80;5.70;;;26.60;90.50;;;;;;5046827;28;20075;-45
2021/09/17 06:15:56;;;;;;;15.73;6.35;;;26.60;90.60;;;;;;5046738;28;20041;-47
2021/09/17 06:18:22;;;;;;;13.98;6.07;;;26.60;90.60;;;;;;5046697;28;20021;-46
2021/09/17 06:20:49;;;;;;;18.13;6.38;;;26.60;90.60;;;;;;5046685;28;20035;-44
2021/09/17 06:23:15;;;;;;;14.32;6.28;;;26.60;90.50;;;;;;5046542;28;20040;-47
2021/09/17 06:25:42;;;;;;;14.15;5.57;;;26.50;90.60;;;;;;5046354;28;20095;-46
2021/09/17 06:28:09;;;;;;;13.73;5.80;;;26.50;90.60;;;;;;5046365;28;20373;-45
2021/09/17 06:30:35;;;;;;;16.75;5.60;;;26.60;90.60;;;;;;5046159;28;20021;-48
2021/09/17 06:33:02;;;;;;;20.98;6.03;;;26.50;90.70;;;;;;5046243;28;20041;-46
2021/09/17 06:35:29;;;;;;;18.95;5.82;;;26.50;90.80;;;;;;5046326;28;20021;-49
2021/09/17 06:37:56;;;;;;;17.15;5.25;;;26.50;90.80;;;;;;5046268;28;20021;-45
2021/09/17 06:40:26;;;;;;;13.52;5.90;;;26.50;90.90;;;;;;5046197;28;20017;-46
2021/09/17 06:42:54;;;;;;;15.65;5.50;;;26.50;91.00;;;;;;5046087;28;20032;-46
2021/09/17 06:45:21;;;;;;;10.90;5.18;;;26.40;91.00;;;;;;5046402;28;20025;-48
2021/09/17 06:47:55;;;;;;;13.82;4.70;;;26.50;90.90;;;;;;5046843;28;20036;-47
2021/09/17 06:50:24;;;;;;;9.98;4.90;;;26.50;91.00;;;;;;5045657;28;20076;-49
2021/09/17 06:52:53;;;;;;;10.38;4.78;;;26.50;90.90;;;;;;5046333;28;20044;-46
2021/09/17 06:55:26;;;;;;;18.30;5.00;;;26.50;90.90;;;;;;5046410;28;20049;-49
2021/09/17 06:57:56;;;;;;;15.52;4.80;;;26.50;90.90;;;;;;5046011;28;20313;-52
2021/09/17 07:00:24;;;;;;;8.55;4.18;;;26.50;90.90;;;;;;5044641;28;20039;-46
2021/09/17 07:02:51;;;;;;;11.07;4.88;;;26.40;91.00;;;;;;5045569;28;20032;-45
2021/09/17 07:05:18;;;;;;;8.57;4.03;;;26.40;90.90;;;;;;5046040;28;20047;-47
2021/09/17 07:07:44;;;;;;;12.98;4.60;;;26.40;91.00;;;;;;5046087;28;20029;-45
2021/09/17 07:10:12;;;;;;;10.38;4.68;;;26.40;91.00;;;;;;5045900;28;20017;-45
2021/09/17 07:12:39;;;;;;;7.82;4.47;;;26.40;90.90;;;;;;5046563;28;20029;-46
2021/09/17 07:15:07;;;;;;;13.43;4.85;;;26.40;90.90;;;;;;5045503;28;20387;-46
2021/09/17 07:17:34;;;;;;;6.90;4.00;;;26.40;90.90;;;;;;5046279;28;20068;-46
2021/09/17 07:20:01;;;;;;;9.18;3.90;;;26.40;90.90;;;;;;5046188;28;20306;-51
2021/09/17 07:22:28;;;;;;;10.10;3.90;;;26.40;90.80;;;;;;5046112;28;20041;-47
2021/09/17 07:24:55;;;;;;;14.57;3.80;;;26.40;90.80;;;;;;5045377;28;20025;-46
2021/09/17 07:27:21;;;;;;;9.48;4.05;;;26.40;90.90;;;;;;5045549;28;20025;-48
2021/09/17 07:29:48;;;;;;;7.10;3.70;;;26.40;90.90;;;;;;5045079;28;20095;-46
2021/09/17 07:32:15;;;;;;;8.38;3.45;;;26.30;90.90;;;;;;5046058;28;20026;-46
2021/09/17 07:34:41;;;;;;;8.55;3.80;;;26.30;90.90;;;;;;5045091;28;20025;-46
2021/09/17 07:37:08;;;;;;;6.10;3.38;;;26.30;90.90;;;;;;5045076;28;20049;-48
2021/09/17 07:39:35;;;;;;;5.53;3.00;;;26.30;90.80;;;;;;5045637;28;20032;-48
2021/09/17 07:42:01;;;;;;;4.40;2.92;;;26.30;90.80;;;;;;5045326;28;20017;-47
2021/09/17 07:44:28;;;;;;;7.55;3.47;;;26.30;90.80;;;;;;5044857;28;20059;-47
2021/09/17 07:46:54;;;;;;;6.82;3.25;;;26.30;90.70;;;;;;5045127;28;20026;-45
2021/09/17 07:49:21;;;;;;;8.80;2.90;;;26.20;90.70;;;;;;5045165;28;20301;-46
2021/09/17 07:51:48;;;;;;;6.20;3.03;;;26.20;90.70;;;;;;5045464;28;20029;-47
2021/09/17 07:54:14;;;;;;;6.15;2.75;;;26.20;90.70;;;;;;5045326;28;20302;-46
2021/09/17 07:56:41;;;;;;;5.70;2.92;;;26.20;90.70;;;;;;5045134;28;20029;-45
2021/09/17 07:59:08;;;;;;;6.03;2.53;;;26.20;90.60;;;;;;5045223;28;20085;-47
2021/09/17 08:01:34;;;;;;;4.13;2.55;;;26.20;90.50;;;;;;5044014;28;20195;-46
2021/09/17 08:04:01;;;;;;;5.55;2.70;;;26.20;90.50;;;;;;5044933;28;20022;-46
2021/09/17 08:06:28;;;;;;;5.70;2.58;;;26.20;90.40;;;;;;5044945;28;20055;-51
2021/09/17 08:08:54;;;;;;;5.55;2.30;;;26.20;90.40;;;;;;5044463;28;20045;-54
2021/09/17 08:11:21;;;;;;;6.57;2.63;;;26.20;90.20;;;;;;5044753;28;20034;-55
2021/09/17 08:13:47;;;;;;;6.70;2.30;;;26.10;90.00;;;;;;5044702;28;20033;-46
2021/09/17 08:16:14;;;;;;;4.50;2.67;;;26.10;89.90;;;;;;5044721;28;20036;-52
2021/09/17 08:18:41;;;;;;;6.97;2.42;;;26.10;89.70;;;;;;5044596;28;20306;-47
2021/09/17 08:21:07;;;;;;;4.20;2.22;;;26.10;89.60;;;;;;5044475;28;20029;-47
2021/09/17 08:23:34;;;;;;;2.80;2.10;;;26.10;89.40;;;;;;5044317;28;20385;-46
2021/09/17 08:26:03;;;;;;;7.07;2.50;;;26.10;89.20;;;;;;5044906;28;20034;-45
2021/09/17 08:28:30;;;;;;;5.68;2.15;;;26.10;89.30;;;;;;5045185;28;20302;-48
2021/09/17 08:30:57;;;;;;;9.15;2.28;;;26.10;89.20;;;;;;5044741;28;20037;-47
2021/09/17 08:33:24;;;;;;;4.35;2.15;;;26.10;89.40;;;;;;5044436;28;20027;-48
2021/09/17 08:35:51;;;;;;;5.20;2.00;;;26.00;89.40;;;;;;5044049;28;20029;-46
2021/09/17 08:38:18;;;;;;;3.78;2.15;;;26.00;89.40;;;;;;5043592;28;20045;-47
2021/09/17 08:40:44;;;;;;;4.90;2.28;;;26.00;89.60;;;;;;5044499;28;20021;-46
2021/09/17 08:43:11;;;;;;;4.28;2.42;;;26.00;89.60;;;;;;5044691;28;20017;-50
2021/09/17 08:45:38;;;;;;;6.32;2.30;;;26.00;89.70;;;;;;5043879;28;20021;-47
2021/09/17 08:48:05;;;;;;;4.68;2.10;;;26.00;89.80;;;;;;5044146;28;20024;-47
2021/09/17 08:50:32;;;;;;;7.30;2.40;;;26.00;89.80;;;;;;5043903;28;20045;-54
2021/09/17 08:52:58;;;;;;;3.72;2.10;;;26.00;89.90;;;;;;5043887;28;20021;-49
2021/09/17 08:55:25;;;;;;;3.42;2.13;;;26.00;89.80;;;;;;5044106;28;20025;-46
2021/09/17 08:57:52;;;;;;;4.40;2.22;;;26.00;89.80;;;;;;5044093;28;20029;-45
2021/09/17 09:00:29;;;;;;;4.88;2.30;;;26.00;89.70;;;;;;5044224;28;20225;-46
2021/09/17 09:03:00;;;;;;;4.13;2.17;;;26.00;89.60;;;;;;5044085;28;20021;-45
2021/09/17 09:05:31;;;;;;;5.10;2.10;;;26.00;89.90;;;;;;5044053;28;20318;-47
2021/09/17 09:07:59;;;;;;;5.38;2.38;;;25.90;89.90;;;;;;5043894;28;20116;-47
2021/09/17 09:10:26;;;;;;;2.80;1.92;;;25.90;90.00;;;;;;5043936;28;20040;-48
2021/09/17 09:12:54;;;;;;;4.13;2.20;;;25.90;90.00;;;;;;5046071;28;20028;-47
2021/09/17 09:15:28;;;;;;;3.65;2.05;;;25.90;90.00;;;;;;5047755;28;20033;-49
2021/09/17 09:18:00;;;;;;;4.75;2.10;;;25.90;90.00;;;;;;5048141;28;20025;-46
2021/09/17 09:20:39;;;;;;;6.15;2.20;;;25.90;89.70;;;;;;5048316;28;20063;-45
2021/09/17 09:23:15;;;;;;;6.05;2.80;;;25.90;89.60;;;;;;5047682;28;20308;-45
2021/09/17 09:26:07;;;;;;;6.22;2.17;;;25.90;89.60;;;;;;5047861;28;20025;-47
2021/09/17 09:28:39;;;;;;;2.75;2.15;;;25.90;89.40;;;;;;5047905;28;20067;-51
2021/09/17 09:31:14;;;;;;;5.53;2.15;;;25.90;89.30;;;;;;5047741;28;20283;-47
2021/09/17 09:33:46;;;;;;;4.38;2.00;;;25.90;89.40;;;;;;5047619;28;20017;-48
2021/09/17 09:36:35;;;;;;;2.38;1.95;;;25.90;89.20;;;;;;5047529;28;20033;-47
2021/09/17 09:39:03;;;;;;;6.00;2.17;;;25.90;88.90;;;;;;5047552;28;20033;-46
2021/09/17 09:41:35;;;;;;;4.25;2.10;;;25.80;88.80;;;;;;5047681;28;20035;-44
2021/09/17 09:44:16;;;;;;;5.50;2.30;;;25.80;88.70;;;;;;5047635;28;20025;-45
2021/09/17 09:46:44;;;;;;;4.53;2.08;;;25.80;88.80;;;;;;5046883;28;20083;-45
2021/09/17 09:49:21;;;;;;;6.28;2.20;;;25.80;88.60;;;;;;5047078;28;20051;-47
2021/09/17 09:52:07;;;;;;;4.65;1.80;;;25.80;88.70;;;;;;5047793;28;20033;-48
2021/09/17 09:54:36;;;;;;;5.03;2.40;;;25.80;88.90;;;;;;5047227;28;20025;-47
2021/09/17 09:57:04;;;;;;;4.38;2.22;;;25.80;88.80;;;;;;5045997;28;20222;-46
2021/09/17 09:59:34;;;;;;;7.32;2.15;;;25.80;88.90;;;;;;5047141;28;20298;-46
2021/09/17 10:02:04;;;;;;;2.90;2.30;;;25.80;89.20;;;;;;5047444;28;20025;-54
2021/09/17 10:04:32;;;;;;;2.50;2.30;;;25.80;89.20;;;;;;5046764;28;20017;-51
2021/09/17 10:07:04;;;;;;;6.38;2.95;;;25.80;89.30;;;;;;5046987;28;20139;-46
2021/09/17 10:09:32;;;;;;;3.75;2.45;;;25.70;89.40;;;;;;5046739;28;20095;-51
2021/09/17 10:11:59;;;;;;;10.57;3.13;;;25.80;89.50;;;;;;5046936;28;20038;-47
2021/09/17 10:14:28;;;;;;;6.57;3.38;;;25.70;89.50;;;;;;5047116;28;20022;-47
2021/09/17 10:16:58;;;;;;;11.55;3.67;;;25.70;89.50;;;;;;5046844;28;20041;-46
2021/09/17 10:19:25;;;;;;;10.90;4.00;;;25.70;89.70;;;;;;5047684;28;20245;-48
2021/09/17 10:22:02;;;;;;;9.73;4.18;;;25.70;89.70;;;;;;5047066;28;20025;-47
2021/09/17 10:24:42;;;;;;;9.48;3.90;;;25.70;89.80;;;;;;5045579;28;20017;-47
2021/09/17 10:27:19;;;;;;;6.13;3.90;;;25.70;90.00;;;;;;5046327;28;20326;-46
2021/09/17 10:29:53;;;;;;;7.70;3.92;;;25.70;90.00;;;;;;5046773;28;20025;-46
2021/09/17 10:32:37;;;;;;;11.63;5.50;;;25.60;90.10;;;;;;5045312;28;20218;-48
2021/09/17 10:35:26;;;;;;;10.18;4.88;;;25.60;90.20;;;;;;5046494;28;20026;-47
2021/09/17 10:38:15;;;;;;;11.07;5.13;;;25.60;90.30;;;;;;5046132;28;20041;-49
2021/09/17 10:40:54;;;;;;;20.17;5.50;;;25.60;90.30;;;;;;5046234;28;20056;-50
2021/09/17 10:43:31;;;;;;;14.23;5.40;;;25.60;90.30;;;;;;5045874;28;20021;-46
2021/09/17 10:46:00;;;;;;;16.17;5.75;;;25.60;90.30;;;;;;5046016;28;20057;-55
2021/09/17 10:48:42;;;;;;;14.40;5.20;;;25.60;90.40;;;;;;5045964;28;20027;-50
2021/09/17 10:51:10;;;;;;;22.25;7.20;;;25.50;90.80;;;;;;5045898;28;20072;-53
2021/09/17 10:53:44;;;;;;;18.08;7.03;;;25.40;90.90;;;;;;5045673;28;20323;-52
2021/09/17 10:56:12;;;;;;;23.58;6.75;;;25.30;91.10;;;;;;5045571;28;20037;-50
2021/09/17 10:58:46;;;;;;;12.32;5.85;;;25.30;91.20;;;;;;5045761;28;20052;-56
2021/09/17 11:01:17;;;;;;;14.20;5.47;;;25.20;91.30;;;;;;5045683;28;20351;-56
2021/09/17 11:03:47;;;;;;;16.52;5.45;;;25.30;91.40;;;;;;5045600;28;20028;-56
2021/09/17 11:06:21;;;;;;;22.70;6.03;;;25.30;91.40;;;;;;5045415;28;20336;-52
2021/09/17 11:08:49;;;;;;;18.85;6.00;;;25.30;91.50;;;;;;5045206;28;20057;-50
2021/09/17 11:11:41;;;;;;;12.90;5.90;;;25.30;91.40;;;;;;5045692;28;20029;-49
2021/09/17 11:14:16;;;;;;;14.60;6.10;;;25.30;91.30;;;;;;5045504;28;20025;-46
2021/09/17 11:16:46;;;;;;;21.02;6.88;;;25.40;91.30;;;;;;5045376;28;20040;-46
2021/09/17 11:19:19;;;;;;;17.83;6.75;;;25.40;91.10;;;;;;5045031;28;20014;-47
2021/09/17 11:21:50;;;;;;;15.93;5.60;;;25.50;91.00;;;;;;5045540;28;20021;-47
2021/09/17 11:24:19;;;;;;;20.77;5.90;;;25.50;90.80;;;;;;5045216;28;20017;-51
2021/09/17 11:26:48;;;;;;;15.65;5.30;;;25.60;90.70;;;;;;5045393;28;20040;-56
2021/09/17 11:29:17;;;;;;;19.40;4.57;;;25.60;90.50;;;;;;5044722;28;20037;-51
2021/09/17 11:31:45;;;;;;;14.50;4.55;;;25.70;90.40;;;;;;5045245;28;20033;-49
2021/09/17 11:34:14;;;;;;;9.68;4.57;;;25.70;90.30;;;;;;5045060;28;20365;-50
2021/09/17 11:37:00;;;;;;;10.85;3.78;;;25.80;90.20;;;;;;5044657;28;20101;-48
2021/09/17 11:39:32;;;;;;;10.90;4.13;;;25.80;90.10;;;;;;5044922;28;20009;-48
2021/09/17 11:42:05;;;;;;;11.63;3.50;;;25.90;90.00;;;;;;5045195;28;20025;-49
2021/09/17 11:44:53;;;;;;;12.07;4.30;;;26.00;90.00;;;;;;5044720;28;20021;-48
2021/09/17 11:47:34;;;;;;;13.13;5.03;;;26.00;90.10;;;;;;5045170;28;20033;-46
2021/09/17 11:50:03;;;;;;;13.38;4.18;;;26.00;90.10;;;;;;5044703;28;20017;-54
2021/09/17 11:52:39;;;;;;;9.95;3.80;;;26.10;90.10;;;;;;5045145;28;20033;-46
2021/09/17 11:55:12;;;;;;;12.95;3.70;;;26.20;90.10;;;;;;5044500;28;20025;-47
2021/09/17 11:57:41;;;;;;;9.73;3.83;;;26.20;90.00;;;;;;5045102;28;20025;-47
2021/09/17 12:00:10;;;;;;;16.17;4.53;;;26.30;90.00;;;;;;5044424;28;20263;-46
2021/09/17 12:02:39;;;;;;;13.30;3.70;;;26.40;89.80;;;;;;5044926;28;20310;-45
2021/09/17 12:05:09;;;;;;;12.32;4.00;;;26.40;89.50;;;;;;5044466;28;20009;-46
2021/09/17 12:07:36;;;;;;;9.82;3.50;;;26.40;89.00;;;;;;5044454;28;20040;-47
2021/09/17 12:10:11;;;;;;;10.25;3.28;;;26.50;88.70;;;;;;5044337;28;20060;-48
2021/09/17 12:12:41;;;;;;;11.93;3.70;;;26.50;88.80;;;;;;5044827;28;20030;-51
2021/09/17 12:15:08;;;;;;;7.80;2.53;;;26.60;88.50;;;;;;5044137;28;20052;-48
2021/09/17 12:17:51;;;;;;;17.70;2.97;;;26.60;88.40;;;;;;5043320;28;20053;-47
2021/09/17 12:20:18;;;;;;;7.47;2.70;;;26.60;88.50;;;;;;5043980;28;20021;-53
2021/09/17 12:22:54;;;;;;;8.45;2.92;;;26.70;88.30;;;;;;5044119;28;20021;-54
2021/09/17 12:25:28;;;;;;;15.02;2.78;;;26.70;88.20;;;;;;5044181;28;20060;-53
2021/09/17 12:28:21;;;;;;;5.72;2.63;;;26.80;87.70;;;;;;5044257;28;20061;-46
2021/09/17 12:30:50;;;;;;;11.70;3.65;;;26.80;87.60;;;;;;5036500;28;20088;-46
2021/09/17 12:33:26;;;;;;;38.13;23.20;;;26.90;87.60;;;;;;5043895;28;20017;-46
2021/09/17 12:36:06;;;;;;;26.58;17.20;;;26.90;87.60;;;;;;5043808;28;20037;-52
2021/09/17 12:38:32;;;;;;;25.48;16.50;;;26.90;87.60;;;;;;5042720;28;20025;-54
2021/09/17 12:41:01;;;;;;;27.08;13.10;;;27.00;87.40;;;;;;5043835;28;20206;-47
2021/09/17 12:43:32;;;;;;;19.90;10.70;;;27.00;87.30;;;;;;5043614;28;20025;-52
2021/09/17 12:46:10;;;;;;;22.60;10.98;;;27.10;87.20;;;;;;5043622;28;20032;-47